createdAt,value
2018-02-15T00:02:19.181Z,1.70
2018-02-15T00:04:46.728Z,1.80
2018-02-15T00:07:14.997Z,1.70
2018-02-15T00:09:43.649Z,1.80
2018-02-15T00:12:11.116Z,1.70
2018-02-15T00:14:38.635Z,1.80
2018-02-15T00:17:06.573Z,1.70
2018-02-15T00:19:34.217Z,1.70
2018-02-15T00:22:01.715Z,1.70
2018-02-15T00:24:29.661Z,1.70
2018-02-15T00:26:57.219Z,1.70
2018-02-15T00:29:25.478Z,1.80
2018-02-15T00:31:53.466Z,1.80
2018-02-15T00:34:21.139Z,1.80
2018-02-15T00:36:48.638Z,1.70
2018-02-15T00:39:16.474Z,1.70
2018-02-15T00:41:43.971Z,1.70
2018-02-15T00:44:11.470Z,1.70
2018-02-15T00:46:39.262Z,1.70
2018-02-15T00:49:06.776Z,1.70
2018-02-15T00:51:35.181Z,1.70
2018-02-15T00:54:03.032Z,1.70
2018-02-15T00:56:30.531Z,1.80
2018-02-15T00:58:58.030Z,1.80
2018-02-15T01:01:25.591Z,1.70
2018-02-15T01:03:53.857Z,1.70
2018-02-15T01:06:21.450Z,1.70
2018-02-15T01:08:49.323Z,1.70
2018-02-15T01:11:16.825Z,1.70
2018-02-15T01:13:44.341Z,1.70
2018-02-15T01:16:11.865Z,1.70
2018-02-15T01:18:39.382Z,1.70
2018-02-15T01:21:07.202Z,1.70
2018-02-15T01:23:34.703Z,1.80
2018-02-15T01:26:02.216Z,1.70
2018-02-15T01:28:30.530Z,1.70
2018-02-15T01:30:57.996Z,1.70
2018-02-15T01:33:25.811Z,1.70
2018-02-15T01:35:54.072Z,1.80
2018-02-15T01:38:22.339Z,1.80
2018-02-15T01:40:49.898Z,1.70
2018-02-15T01:43:17.398Z,1.70
2018-02-15T01:45:45.163Z,1.80
2018-02-15T01:48:12.639Z,1.80
2018-02-15T01:50:40.155Z,1.80
2018-02-15T01:53:08.422Z,1.80
2018-02-15T01:55:35.920Z,1.80
2018-02-15T01:58:03.689Z,1.80
2018-02-15T02:00:31.349Z,1.80
2018-02-15T02:02:58.867Z,1.80
2018-02-15T02:05:27.560Z,1.80
2018-02-15T02:07:55.241Z,1.80
2018-02-15T02:10:22.900Z,1.80
2018-02-15T02:12:50.434Z,1.80
2018-02-15T02:15:18.708Z,1.80
2018-02-15T02:17:46.654Z,1.80
2018-02-15T02:20:14.956Z,1.80
2018-02-15T02:22:43.227Z,1.90
2018-02-15T02:25:10.734Z,1.80
2018-02-15T02:27:38.461Z,1.90
2018-02-15T02:30:06.258Z,1.80
2018-02-15T02:32:33.810Z,1.80
2018-02-15T02:35:01.473Z,1.80
2018-02-15T02:37:29.178Z,1.80
2018-02-15T02:39:56.679Z,1.80
2018-02-15T02:42:24.765Z,1.90
2018-02-15T02:44:52.264Z,1.80
2018-02-15T02:47:19.767Z,1.80
2018-02-15T02:49:47.554Z,1.90
2018-02-15T02:52:15.066Z,1.90
2018-02-15T02:54:43.321Z,1.90
2018-02-15T02:57:10.821Z,1.90
2018-02-15T02:59:38.332Z,1.90
2018-02-15T03:02:06.156Z,1.90
2018-02-15T03:04:33.693Z,1.90
2018-02-15T03:07:01.185Z,1.90
2018-02-15T03:09:28.734Z,1.90
2018-02-15T03:11:56.225Z,1.90
2018-02-15T03:14:23.718Z,1.90
2018-02-15T03:16:51.408Z,1.90
2018-02-15T03:19:18.899Z,1.90
2018-02-15T03:21:46.381Z,1.90
2018-02-15T03:24:14.876Z,1.90
2018-02-15T03:26:42.366Z,1.90
2018-02-15T03:29:10.191Z,1.90
2018-02-15T03:31:37.696Z,1.90
2018-02-15T03:34:05.184Z,1.90
2018-02-15T03:36:32.783Z,2.00
2018-02-15T03:39:00.283Z,2.00
2018-02-15T03:41:27.778Z,2.00
2018-02-15T03:43:55.284Z,2.00
2018-02-15T03:46:22.815Z,2.00
2018-02-15T03:48:50.384Z,2.00
2018-02-15T03:51:17.980Z,2.00
2018-02-15T03:53:45.775Z,2.00
2018-02-15T03:56:14.074Z,2.00
2018-02-15T03:58:41.629Z,2.00
2018-02-15T04:01:09.496Z,2.00
2018-02-15T04:03:37.031Z,2.00
2018-02-15T04:06:04.601Z,2.00
2018-02-15T04:08:32.262Z,2.00
2018-02-15T04:10:59.770Z,2.10
2018-02-15T04:13:27.544Z,2.00
2018-02-15T04:15:55.136Z,2.00
2018-02-15T04:18:24.141Z,2.00
2018-02-15T04:20:52.529Z,2.00
2018-02-15T04:23:20.043Z,2.10
2018-02-15T04:25:47.860Z,2.00
2018-02-15T04:28:15.355Z,2.00
2018-02-15T04:30:42.847Z,2.10
2018-02-15T04:33:11.124Z,2.10
2018-02-15T04:35:39.438Z,2.10
2018-02-15T04:38:07.389Z,2.10
2018-02-15T04:40:34.935Z,2.10
2018-02-15T04:43:03.326Z,2.10
2018-02-15T04:45:31.199Z,2.10
2018-02-15T04:47:58.694Z,2.10
2018-02-15T04:50:26.196Z,2.10
2018-02-15T04:52:54.085Z,2.10
2018-02-15T04:55:21.573Z,2.10
2018-02-15T04:57:49.087Z,2.20
2018-02-15T05:00:16.708Z,2.20
2018-02-15T05:02:45.713Z,2.10
2018-02-15T05:05:13.499Z,2.20
2018-02-15T05:07:41.033Z,2.20
2018-02-15T05:10:08.704Z,2.20
2018-02-15T05:12:36.310Z,2.20
2018-02-15T05:15:03.821Z,2.20
2018-02-15T05:17:31.709Z,2.20
2018-02-15T05:19:59.385Z,2.20
2018-02-15T05:22:26.879Z,2.20
2018-02-15T05:24:54.386Z,2.20
2018-02-15T05:27:22.077Z,2.30
2018-02-15T05:29:49.923Z,2.30
2018-02-15T05:32:17.420Z,2.30
2018-02-15T05:34:45.037Z,2.30
2018-02-15T05:37:12.918Z,2.30
2018-02-15T05:39:40.544Z,2.30
2018-02-15T05:42:08.153Z,2.30
2018-02-15T05:44:35.700Z,2.30
2018-02-15T05:47:03.239Z,2.30
2018-02-15T05:49:31.028Z,2.30
2018-02-15T05:51:58.522Z,2.30
2018-02-15T05:54:26.027Z,2.30
2018-02-15T05:56:53.872Z,2.30
2018-02-15T05:59:22.348Z,2.40
2018-02-15T06:01:50.892Z,2.40
2018-02-15T06:04:18.423Z,2.40
2018-02-15T06:06:45.962Z,2.40
2018-02-15T06:09:13.495Z,2.40
2018-02-15T06:11:41.073Z,2.40
2018-02-15T06:14:09.340Z,2.40
2018-02-15T06:16:37.292Z,2.40
2018-02-15T06:19:04.801Z,2.40
2018-02-15T06:21:32.550Z,2.40
2018-02-15T06:24:00.270Z,2.40
2018-02-15T06:26:27.764Z,2.40
2018-02-15T06:28:56.120Z,2.40
2018-02-15T06:31:23.905Z,2.40
2018-02-15T06:33:52.170Z,2.40
2018-02-15T06:36:20.448Z,2.50
2018-02-15T06:38:49.062Z,2.50
2018-02-15T06:41:16.696Z,2.40
2018-02-15T06:43:44.211Z,2.50
2018-02-15T06:46:12.237Z,2.50
2018-02-15T06:48:39.951Z,2.50
2018-02-15T06:51:07.640Z,2.50
2018-02-15T06:53:36.473Z,2.50
2018-02-15T06:56:04.143Z,2.50
2018-02-15T06:58:31.660Z,2.50
2018-02-15T07:01:00.557Z,2.50
2018-02-15T07:03:28.339Z,2.50
2018-02-15T07:05:55.980Z,2.50
2018-02-15T07:08:24.105Z,2.50
2018-02-15T07:10:51.816Z,2.50
2018-02-15T07:13:19.446Z,2.50
2018-02-15T07:15:47.467Z,2.50
2018-02-15T07:18:15.576Z,2.60
2018-02-15T07:20:43.963Z,2.60
2018-02-15T07:23:12.205Z,2.60
2018-02-15T07:25:40.148Z,2.60
2018-02-15T07:28:07.746Z,2.60
2018-02-15T07:30:35.264Z,2.60
2018-02-15T07:33:02.780Z,2.60
2018-02-15T07:35:30.270Z,2.60
2018-02-15T07:37:58.556Z,2.60
2018-02-15T07:40:26.061Z,2.60
2018-02-15T07:42:53.571Z,2.60
2018-02-15T07:45:21.227Z,2.60
2018-02-15T07:47:48.761Z,2.60
2018-02-15T07:50:16.258Z,2.60
2018-02-15T07:52:43.760Z,2.60
2018-02-15T07:55:11.300Z,2.60
2018-02-15T07:57:38.869Z,2.60
2018-02-15T08:00:06.507Z,2.60
2018-02-15T08:02:34.243Z,2.60
2018-02-15T08:05:01.726Z,2.50
2018-02-15T08:07:29.239Z,2.50
2018-02-15T08:09:57.625Z,2.40
2018-02-15T08:12:26.002Z,2.30
2018-02-15T08:14:53.521Z,2.30
2018-02-15T08:17:21.032Z,2.30
2018-02-15T08:19:48.548Z,2.20
2018-02-15T08:22:16.059Z,2.20
2018-02-15T08:24:43.563Z,2.20
2018-02-15T08:27:11.082Z,2.10
2018-02-15T08:29:38.690Z,2.10
2018-02-15T08:32:06.298Z,2.10
2018-02-15T08:34:33.814Z,2.00
2018-02-15T08:37:01.324Z,2.00
2018-02-15T08:39:28.824Z,1.90
2018-02-15T08:41:56.310Z,1.90
2018-02-15T08:44:23.841Z,1.80
2018-02-15T08:46:52.124Z,1.80
2018-02-15T08:49:20.382Z,1.70
2018-02-15T08:51:47.907Z,1.70
2018-02-15T08:54:15.415Z,1.60
2018-02-15T08:56:43.677Z,1.60
2018-02-15T08:59:11.222Z,1.60
2018-02-15T09:01:38.744Z,1.70
2018-02-15T09:04:06.287Z,1.70
2018-02-15T09:06:33.813Z,1.70
2018-02-15T09:09:01.312Z,1.60
2018-02-15T09:11:28.819Z,1.60
2018-02-15T09:13:56.332Z,1.70
2018-02-15T09:16:23.831Z,1.70
2018-02-15T09:18:51.334Z,1.60
2018-02-15T09:21:18.958Z,1.60
2018-02-15T09:23:46.456Z,1.60
2018-02-15T09:26:13.970Z,1.70
2018-02-15T09:28:41.479Z,1.60
2018-02-15T09:31:09.152Z,1.60
2018-02-15T09:33:36.710Z,1.60
2018-02-15T09:36:04.240Z,1.60
2018-02-15T09:38:31.838Z,1.60
2018-02-15T09:40:59.343Z,1.60
2018-02-15T09:43:26.939Z,1.60
2018-02-15T09:45:54.434Z,1.60
2018-02-15T09:48:21.939Z,1.60
2018-02-15T09:50:49.456Z,1.60
2018-02-15T09:53:16.956Z,1.70
2018-02-15T09:55:44.468Z,1.70
2018-02-15T09:58:12.010Z,1.70
2018-02-15T10:00:39.534Z,1.60
2018-02-15T10:03:07.042Z,1.60
2018-02-15T10:05:34.559Z,1.70
2018-02-15T10:08:02.067Z,1.70
2018-02-15T10:10:29.542Z,1.70
2018-02-15T10:12:57.831Z,1.80
2018-02-15T10:15:26.144Z,1.80
2018-02-15T10:17:53.664Z,1.80
2018-02-15T10:20:21.206Z,1.80
2018-02-15T10:22:49.482Z,1.80
2018-02-15T10:25:17.755Z,1.80
2018-02-15T10:27:45.388Z,1.90
2018-02-15T10:30:13.169Z,1.90
2018-02-15T10:32:40.677Z,1.90
2018-02-15T10:35:08.185Z,1.90
2018-02-15T10:37:35.692Z,1.90
2018-02-15T10:40:03.197Z,1.90
2018-02-15T10:42:30.716Z,1.90
2018-02-15T10:44:58.216Z,1.90
2018-02-15T10:47:26.503Z,1.90
2018-02-15T10:49:54.924Z,1.90
2018-02-15T10:52:22.425Z,1.90
2018-02-15T10:54:49.994Z,1.90
2018-02-15T10:57:17.530Z,2.00
2018-02-15T10:59:45.048Z,2.00
2018-02-15T11:02:18.554Z,2.00
2018-02-15T11:04:51.743Z,2.00
2018-02-15T11:07:19.264Z,2.10
2018-02-15T11:09:46.790Z,2.10
2018-02-15T11:12:14.305Z,2.10
2018-02-15T11:14:42.599Z,2.20
2018-02-15T11:17:10.107Z,2.20
2018-02-15T11:19:38.753Z,2.20
2018-02-15T11:22:06.275Z,2.10
2018-02-15T11:24:33.787Z,2.20
2018-02-15T11:27:01.309Z,2.10
2018-02-15T11:29:28.855Z,2.20
2018-02-15T11:31:56.334Z,2.20
2018-02-15T11:34:23.862Z,2.20
2018-02-15T11:36:51.405Z,2.20
2018-02-15T11:39:18.915Z,2.20
2018-02-15T11:41:46.496Z,2.20
2018-02-15T11:44:14.024Z,2.30
2018-02-15T11:46:41.544Z,2.30
2018-02-15T11:49:09.065Z,2.30
2018-02-15T11:51:36.591Z,2.20
2018-02-15T11:54:04.088Z,2.20
2018-02-15T11:56:31.609Z,2.20
2018-02-15T11:58:59.129Z,2.20
2018-02-15T12:01:26.620Z,2.20
2018-02-15T12:03:54.304Z,2.20
2018-02-15T12:06:21.845Z,2.30
2018-02-15T12:08:49.340Z,2.20
2018-02-15T12:11:16.861Z,2.20
2018-02-15T12:13:46.714Z,2.20
2018-02-15T12:16:14.205Z,2.20
2018-02-15T12:18:42.478Z,2.30
2018-02-15T12:21:10.071Z,2.30
2018-02-15T12:23:37.526Z,2.30
2018-02-15T12:26:05.034Z,2.20
2018-02-15T12:28:32.559Z,2.30
2018-02-15T12:31:00.046Z,2.20
2018-02-15T12:33:27.549Z,2.20
2018-02-15T12:35:55.083Z,2.20
2018-02-15T12:38:23.351Z,2.20
2018-02-15T12:40:51.721Z,2.20
2018-02-15T12:43:19.209Z,2.20
2018-02-15T12:45:46.702Z,2.20
2018-02-15T12:48:14.218Z,2.20
2018-02-15T12:50:41.764Z,2.20
2018-02-15T12:53:09.262Z,2.10
2018-02-15T12:55:36.791Z,2.20
2018-02-15T12:58:05.089Z,2.20
2018-02-15T13:37:30.474Z,2.30
2018-02-15T13:39:57.997Z,2.30
2018-02-15T13:42:25.515Z,2.30
2018-02-15T13:44:53.079Z,2.30
2018-02-15T13:47:21.393Z,2.40
2018-02-15T13:49:48.887Z,2.30
2018-02-15T13:52:16.424Z,2.30
2018-02-15T13:54:44.016Z,2.30
2018-02-15T13:57:11.523Z,2.40
2018-02-15T13:59:39.080Z,2.40
2018-02-15T14:02:06.582Z,2.40
2018-02-15T14:04:34.094Z,2.40
2018-02-15T14:07:01.618Z,2.40
2018-02-15T14:09:29.128Z,2.40
2018-02-15T14:11:57.637Z,2.40
2018-02-15T14:14:25.151Z,2.40
2018-02-15T14:16:52.661Z,2.40
2018-02-15T14:19:20.211Z,2.40
2018-02-15T14:21:47.735Z,2.40
2018-02-15T14:24:15.237Z,2.40
2018-02-15T14:26:42.757Z,2.50
2018-02-15T14:29:10.255Z,2.50
2018-02-15T14:31:37.757Z,2.50
2018-02-15T14:34:05.251Z,2.60
2018-02-15T14:36:32.770Z,2.50
2018-02-15T14:39:00.266Z,2.50
2018-02-15T14:41:27.788Z,2.60
2018-02-15T14:43:55.643Z,2.60
2018-02-15T14:46:23.147Z,2.60
2018-02-15T14:48:50.668Z,2.60
2018-02-15T14:51:18.191Z,2.60
2018-02-15T14:53:46.505Z,2.60
2018-02-15T14:56:13.993Z,2.60
2018-02-15T14:58:41.518Z,2.60
2018-02-15T15:01:09.009Z,2.60
2018-02-15T15:03:36.504Z,2.70
2018-02-15T15:06:04.804Z,2.70
2018-02-15T15:08:32.304Z,2.70
2018-02-15T15:10:59.814Z,2.80
2018-02-15T15:13:27.378Z,2.80
2018-02-15T15:15:54.917Z,2.80
2018-02-15T15:18:23.203Z,2.80
2018-02-15T15:20:51.493Z,2.80
2018-02-15T15:23:19.006Z,2.80
2018-02-15T15:25:46.506Z,2.80
2018-02-15T15:28:14.025Z,2.80
2018-02-15T15:30:41.631Z,2.80
2018-02-15T15:33:09.692Z,2.90
2018-02-15T15:35:37.243Z,2.80
2018-02-15T15:38:05.497Z,2.90
2018-02-15T15:40:32.989Z,2.90
2018-02-15T15:43:00.502Z,2.90
2018-02-15T15:45:28.074Z,2.90
2018-02-15T15:47:56.339Z,2.90
2018-02-15T15:50:23.855Z,2.90
2018-02-15T15:52:51.415Z,2.90
2018-02-15T15:55:18.925Z,2.90
2018-02-15T15:57:47.527Z,2.90
2018-02-15T16:00:15.156Z,2.90
2018-02-15T16:02:42.687Z,2.90
2018-02-15T16:05:10.631Z,3.00
2018-02-15T16:07:38.112Z,3.00
2018-02-15T16:10:05.623Z,3.00
2018-02-15T16:12:34.344Z,3.00
2018-02-15T16:15:02.977Z,3.00
2018-02-15T16:17:30.478Z,3.00
2018-02-15T16:19:58.013Z,3.00
2018-02-15T16:22:26.177Z,3.00
2018-02-15T16:24:54.460Z,3.00
2018-02-15T16:27:21.976Z,3.00
2018-02-15T16:29:49.473Z,3.10
2018-02-15T16:32:17.746Z,3.10
2018-02-15T16:34:46.116Z,3.10
2018-02-15T16:37:14.378Z,3.20
2018-02-15T16:39:41.916Z,3.10
2018-02-15T16:42:09.436Z,3.20
2018-02-15T16:44:36.967Z,3.20
2018-02-15T16:47:05.244Z,3.20
2018-02-15T16:49:33.540Z,3.20
2018-02-15T16:52:01.067Z,3.20
2018-02-15T16:54:28.578Z,3.20
2018-02-15T16:56:57.007Z,3.30
2018-02-15T16:59:24.548Z,3.30
2018-02-15T17:01:52.064Z,3.30
2018-02-15T17:04:19.982Z,3.30
2018-02-15T17:06:47.496Z,3.30
2018-02-15T17:09:15.012Z,3.30
2018-02-15T17:11:42.528Z,3.30
2018-02-15T17:14:10.184Z,3.40
2018-02-15T17:16:37.688Z,3.40
2018-02-15T17:19:05.983Z,3.40
2018-02-15T17:21:34.005Z,3.40
2018-02-15T17:24:01.517Z,3.50
2018-02-15T17:26:29.875Z,3.50
2018-02-15T17:28:58.360Z,3.50
2018-02-15T17:31:26.630Z,3.50
2018-02-15T17:33:54.950Z,3.50
2018-02-15T17:36:22.477Z,3.50
2018-02-15T17:38:50.754Z,3.60
2018-02-15T17:41:18.719Z,3.60
2018-02-15T17:43:46.213Z,3.60
2018-02-15T17:46:13.719Z,3.60
2018-02-15T17:48:42.107Z,3.70
2018-02-15T17:51:10.385Z,3.70
2018-02-15T17:53:38.735Z,3.70
2018-02-15T17:56:06.282Z,3.70
2018-02-15T17:58:33.813Z,3.70
2018-02-15T18:01:01.340Z,3.70
2018-02-15T18:03:29.639Z,3.80
2018-02-15T18:05:57.159Z,3.70
2018-02-15T18:08:25.502Z,3.80
2018-02-15T18:10:53.069Z,3.80
2018-02-15T18:13:20.612Z,3.80
2018-02-15T18:15:48.107Z,3.80
2018-02-15T18:18:16.414Z,3.80
2018-02-15T18:20:43.941Z,3.80
2018-02-15T18:23:12.240Z,3.90
2018-02-15T18:25:39.829Z,3.90
2018-02-15T18:28:07.374Z,3.90
2018-02-15T18:30:34.909Z,3.90
2018-02-15T18:33:02.494Z,4.00
2018-02-15T18:35:30.018Z,4.00
2018-02-15T18:37:58.360Z,4.00
2018-02-15T18:40:26.316Z,4.00
2018-02-15T18:42:53.852Z,4.10
2018-02-15T18:45:21.417Z,4.10
2018-02-15T18:47:48.957Z,4.10
2018-02-15T18:50:17.147Z,4.10
2018-02-15T18:52:44.698Z,4.20
2018-02-15T18:55:12.268Z,4.20
2018-02-15T18:57:39.811Z,4.30
2018-02-15T19:00:07.402Z,4.30
2018-02-15T19:02:34.953Z,4.30
2018-02-15T19:05:02.524Z,4.30
2018-02-15T19:07:30.623Z,4.30
2018-02-15T19:09:58.157Z,4.30
2018-02-15T19:12:25.722Z,4.40
2018-02-15T19:14:53.251Z,4.40
2018-02-15T19:17:20.858Z,4.40
2018-02-15T19:19:48.416Z,4.40
2018-02-15T19:22:15.956Z,4.40
2018-02-15T19:24:43.539Z,4.40
2018-02-15T19:27:11.104Z,4.30
2018-02-15T19:29:38.673Z,4.30
2018-02-15T19:32:07.023Z,4.30
2018-02-15T19:34:34.578Z,4.30
2018-02-15T19:37:02.143Z,4.30
2018-02-15T19:39:29.723Z,4.20
2018-02-15T19:41:58.022Z,4.10
2018-02-15T19:44:25.570Z,4.10
2018-02-15T19:46:53.948Z,4.10
2018-02-15T19:49:21.562Z,4.10
2018-02-15T19:51:49.143Z,4.00
2018-02-15T19:54:16.838Z,4.00
2018-02-15T19:56:44.431Z,4.00
2018-02-15T19:59:11.996Z,4.00
2018-02-15T20:01:39.585Z,3.90
2018-02-15T20:04:09.129Z,3.80
2018-02-15T20:06:36.903Z,3.80
2018-02-15T20:09:04.500Z,3.80
2018-02-15T20:11:32.080Z,3.80
2018-02-15T20:13:59.642Z,3.70
2018-02-15T20:16:27.238Z,3.70
2018-02-15T20:18:54.769Z,3.70
2018-02-15T20:21:23.091Z,3.60
2018-02-15T20:23:50.787Z,3.60
2018-02-15T20:26:24.044Z,3.50
2018-02-15T20:28:51.647Z,3.50
2018-02-15T20:31:19.197Z,3.50
2018-02-15T20:33:48.316Z,3.40
2018-02-15T20:36:16.648Z,3.40
2018-02-15T20:38:50.736Z,3.50
2018-02-15T20:41:18.524Z,3.40
2018-02-15T20:43:46.059Z,3.50
2018-02-15T20:46:13.610Z,3.50
2018-02-15T20:48:41.299Z,3.50
2018-02-15T20:51:14.548Z,3.50
2018-02-15T20:53:48.477Z,3.50
2018-02-15T20:56:16.064Z,3.40
2018-02-15T20:58:44.016Z,3.40
2018-02-15T21:01:12.604Z,3.40
2018-02-15T21:03:40.215Z,3.40
2018-02-15T21:06:07.823Z,3.40
2018-02-15T21:08:35.456Z,3.40
2018-02-15T21:11:03.447Z,3.30
2018-02-15T21:13:31.364Z,3.30
2018-02-15T21:15:59.743Z,3.30
2018-02-15T21:18:27.300Z,3.30
2018-02-15T21:20:55.990Z,3.20
2018-02-15T21:23:23.609Z,3.20
2018-02-15T21:25:51.226Z,3.30
2018-02-15T21:28:19.172Z,3.20
2018-02-15T21:30:47.532Z,3.20
2018-02-15T21:33:15.192Z,3.20
2018-02-15T21:35:43.989Z,3.20
2018-02-15T21:38:11.558Z,3.10
2018-02-15T21:40:39.892Z,3.10
2018-02-15T21:43:07.413Z,3.10
2018-02-15T21:45:34.914Z,3.10
2018-02-15T21:48:02.771Z,3.10
2018-02-15T21:50:30.424Z,3.10
2018-02-15T21:52:57.925Z,3.10
2018-02-15T21:55:25.427Z,3.10
2018-02-15T21:57:52.940Z,3.00
2018-02-15T22:00:20.944Z,3.00
2018-02-15T22:02:48.473Z,3.00
2018-02-15T22:05:15.963Z,2.90
2018-02-15T22:07:43.835Z,2.90
2018-02-15T22:10:11.348Z,2.90
2018-02-15T22:12:38.848Z,2.90
2018-02-15T22:15:06.344Z,2.90
2018-02-15T22:17:33.861Z,2.90
2018-02-15T22:20:01.857Z,2.90
2018-02-15T22:22:29.376Z,2.80
2018-02-15T22:24:57.639Z,2.80
2018-02-15T22:27:25.416Z,2.80
2018-02-15T22:29:53.702Z,2.80
2018-02-15T22:32:21.227Z,2.80
2018-02-15T22:34:48.761Z,2.80
2018-02-15T22:37:16.260Z,2.70
2018-02-15T22:39:44.868Z,2.70
2018-02-15T22:42:12.365Z,2.70
2018-02-15T22:44:39.859Z,2.70
2018-02-15T22:47:08.171Z,2.70
2018-02-15T22:49:35.676Z,2.60
2018-02-15T22:52:03.570Z,2.70
2018-02-15T22:54:31.075Z,2.60
2018-02-15T22:56:58.586Z,2.60
2018-02-15T22:59:26.858Z,2.60
2018-02-15T23:01:55.160Z,2.50
2018-02-15T23:04:22.945Z,2.50
2018-02-15T23:06:50.442Z,2.40
2018-02-15T23:09:18.003Z,2.40
2018-02-15T23:11:46.275Z,2.30
2018-02-15T23:14:13.772Z,2.30
2018-02-15T23:16:41.609Z,2.30
2018-02-15T23:19:09.876Z,2.30
2018-02-15T23:21:37.380Z,2.30
2018-02-15T23:24:04.883Z,2.30
2018-02-15T23:26:32.409Z,2.30
2018-02-15T23:29:00.243Z,2.30
2018-02-15T23:31:27.730Z,2.30
2018-02-15T23:33:55.234Z,2.20
2018-02-15T23:36:23.021Z,2.20
2018-02-15T23:38:50.559Z,2.20
2018-02-15T23:41:18.105Z,2.10
2018-02-15T23:43:45.609Z,2.10
2018-02-15T23:46:13.097Z,2.00
2018-02-15T23:48:40.871Z,2.00
2018-02-15T23:51:08.358Z,2.00
2018-02-15T23:53:36.606Z,1.90
2018-02-15T23:56:04.122Z,1.90
2018-02-15T23:58:31.675Z,1.90
